createdAt,value
2018-09-14T21:30:19.806Z,9.40
2018-09-14T21:31:19.744Z,10.70
2018-09-14T21:33:12.687Z,12.20
2018-09-14T21:34:12.660Z,11.50
2018-09-14T21:36:05.562Z,11.40
2018-09-14T21:37:05.565Z,10.10
2018-09-14T21:38:58.526Z,12.70
2018-09-14T21:39:58.507Z,10.90
2018-09-14T21:46:49.788Z,30.90
2018-09-14T21:47:49.777Z,32.90
2018-09-14T21:49:42.694Z,33.00
2018-09-14T21:50:42.687Z,32.00
2018-09-14T21:52:35.627Z,31.70
2018-09-14T21:53:35.631Z,31.20
2018-09-14T21:55:28.555Z,28.90
2018-09-14T21:56:28.527Z,28.40
2018-09-14T21:58:21.430Z,30.30
2018-09-14T21:59:21.414Z,35.90
2018-09-14T22:01:14.341Z,37.40
2018-09-14T22:02:14.341Z,34.60
2018-09-14T22:04:07.283Z,34.80
2018-09-14T22:05:07.261Z,34.90
2018-09-14T22:07:00.205Z,43.20
2018-09-14T22:08:00.204Z,44.60
2018-09-14T22:09:53.145Z,58.20
2018-09-14T22:10:53.106Z,69.40
2018-09-14T22:12:46.064Z,76.90
2018-09-14T22:13:46.031Z,74.70
2018-09-14T22:15:38.956Z,62.70
2018-09-14T22:16:38.957Z,66.80
2018-09-14T22:18:31.908Z,67.90
2018-09-14T22:19:31.877Z,53.50
2018-09-14T22:21:24.834Z,46.00
2018-09-14T22:22:24.799Z,49.50
2018-09-14T22:24:17.721Z,49.00
2018-09-14T22:25:17.723Z,46.90
2018-09-14T22:27:10.693Z,45.20
2018-09-14T22:28:10.656Z,45.70
2018-09-14T22:30:03.611Z,38.90
2018-09-14T22:31:03.609Z,39.80
2018-09-14T22:32:56.565Z,37.00
2018-09-14T22:33:56.535Z,39.40
2018-09-14T22:35:49.458Z,32.70
2018-09-14T22:36:49.453Z,34.30
2018-09-14T22:38:42.403Z,31.00
2018-09-14T22:39:42.383Z,30.80
2018-09-14T22:41:35.297Z,29.50
2018-09-14T22:42:35.272Z,29.90
2018-09-14T22:44:28.222Z,90.10
2018-09-14T22:45:28.196Z,64.10
2018-09-14T22:47:21.136Z,126.40
2018-09-14T22:48:21.114Z,63.10
2018-09-14T22:50:14.035Z,102.50
2018-09-14T22:51:14.037Z,127.90
2018-09-14T22:53:06.949Z,124.90
2018-09-14T22:54:06.927Z,126.00
2018-09-14T22:55:59.846Z,153.50
2018-09-14T22:56:59.846Z,115.60
2018-09-14T22:58:52.797Z,115.10
2018-09-14T22:59:52.770Z,118.50
2018-09-14T23:01:45.728Z,104.50
2018-09-14T23:02:45.712Z,110.20
2018-09-14T23:04:38.627Z,97.00
2018-09-14T23:05:38.625Z,102.00
2018-09-14T23:07:31.570Z,90.50
2018-09-14T23:08:31.549Z,89.40
2018-09-14T23:10:24.468Z,79.70
2018-09-14T23:11:24.477Z,77.10
2018-09-14T23:13:17.417Z,72.10
2018-09-14T23:14:17.395Z,71.60
2018-09-14T23:16:10.346Z,60.80
2018-09-14T23:17:10.322Z,65.20
2018-09-14T23:19:03.258Z,59.70
2018-09-14T23:20:03.258Z,57.70
2018-09-14T23:21:56.201Z,50.00
2018-09-14T23:22:56.183Z,51.70
2018-09-14T23:24:49.169Z,50.20
2018-09-14T23:25:49.167Z,49.70
2018-09-14T23:27:42.117Z,48.60
2018-09-14T23:28:42.139Z,49.10
2018-09-14T23:30:35.023Z,47.60
2018-09-14T23:31:35.041Z,47.40
2018-09-14T23:33:27.995Z,46.20
2018-09-14T23:34:27.973Z,45.70
2018-09-14T23:36:20.918Z,46.00
2018-09-14T23:37:20.902Z,44.00
2018-09-14T23:39:13.831Z,42.90
2018-09-14T23:40:13.824Z,43.80
2018-09-14T23:42:06.796Z,41.90
2018-09-14T23:43:06.761Z,42.60
2018-09-14T23:44:59.711Z,41.20
2018-09-14T23:45:59.702Z,41.50
2018-09-14T23:47:52.616Z,41.20
2018-09-14T23:48:52.590Z,40.90
2018-09-14T23:50:45.536Z,41.60
2018-09-14T23:51:45.540Z,40.90
2018-09-14T23:53:38.437Z,40.10
2018-09-14T23:54:38.443Z,39.30
2018-09-14T23:56:32.415Z,39.20
2018-09-14T23:57:32.390Z,39.90
2018-09-14T23:59:25.316Z,38.00
